createdAt,value
2019-02-27T00:03:06.962Z,6.14
2019-02-27T00:09:01.976Z,6.2
2019-02-27T00:14:56.988Z,6.22
2019-02-27T00:20:52.002Z,6.43
2019-02-27T00:26:46.996Z,5.96
2019-02-27T00:32:41.978Z,7.04
2019-02-27T00:38:37.024Z,7.2
2019-02-27T00:44:34.162Z,6.76
2019-02-27T00:50:27.001Z,6.5
2019-02-27T00:56:22.019Z,7.1
2019-02-27T01:02:19.893Z,7.43
2019-02-27T01:08:12.019Z,7.24
2019-02-27T01:14:06.997Z,7.88
2019-02-27T01:20:02.352Z,6.77
2019-02-27T01:25:57.119Z,8.56
2019-02-27T01:31:52.048Z,7.4
2019-02-27T01:37:47.030Z,7.16
2019-02-27T01:43:42.093Z,7.28
2019-02-27T01:49:37.043Z,6.87
2019-02-27T01:55:32.081Z,7.91
2019-02-27T02:01:29.735Z,7.59
2019-02-27T02:07:22.053Z,7.82
2019-02-27T02:13:17.063Z,9.19
2019-02-27T02:19:12.088Z,10.12
2019-02-27T02:25:07.096Z,7.92
2019-02-27T02:31:05.310Z,7.28
2019-02-27T02:37:01.189Z,9.84
2019-02-27T02:42:52.064Z,8.77
2019-02-27T02:48:47.107Z,8.91
2019-02-27T02:54:42.095Z,8.18
2019-02-27T03:00:38.918Z,8.02
2019-02-27T03:06:34.957Z,7.98
2019-02-27T03:12:30.140Z,8.62
2019-02-27T03:18:22.146Z,7.73
2019-02-27T03:24:17.123Z,8.52
2019-02-27T03:30:12.135Z,8.53
2019-02-27T03:36:07.123Z,9.11
2019-02-27T03:42:02.160Z,8.96
2019-02-27T03:47:57.237Z,9.1
2019-02-27T03:53:52.118Z,9.81
2019-02-27T03:59:47.105Z,9.77
2019-02-27T04:05:45.209Z,9.81
2019-02-27T04:11:41.340Z,8.84
2019-02-27T04:17:32.140Z,8
2019-02-27T04:23:27.108Z,9.04
2019-02-27T04:29:22.120Z,7.47
2019-02-27T04:35:17.180Z,7.87
2019-02-27T04:41:12.124Z,7.9
2019-02-27T04:47:07.163Z,6.94
2019-02-27T04:53:02.130Z,8.15
2019-02-27T04:58:57.147Z,8.69
2019-02-27T05:04:52.144Z,7.83
2019-02-27T05:10:47.137Z,7.13
2019-02-27T05:16:42.179Z,7.57
2019-02-27T05:22:37.153Z,7.35
2019-02-27T05:28:34.909Z,8.19
2019-02-27T05:34:27.174Z,8.02
2019-02-27T05:40:23.065Z,8.43
2019-02-27T05:46:17.142Z,9.13
2019-02-27T05:52:14.278Z,8.06
2019-02-27T05:58:07.177Z,8.71
2019-02-27T06:04:02.158Z,8.78
2019-02-27T06:09:57.216Z,9.04
2019-02-27T06:15:52.186Z,9.13
2019-02-27T06:21:47.200Z,9.34
2019-02-27T06:27:42.231Z,8.82
2019-02-27T06:33:37.215Z,8.49
2019-02-27T06:39:34.326Z,8.53
2019-02-27T06:45:27.201Z,8.25
2019-02-27T06:51:22.215Z,9.4
2019-02-27T06:57:17.240Z,9.44
2019-02-27T07:03:12.208Z,10.38
2019-02-27T07:09:11.150Z,12.61
2019-02-27T07:15:02.228Z,13.47
2019-02-27T07:20:58.220Z,11.25
2019-02-27T07:26:52.262Z,12.14
2019-02-27T07:32:47.225Z,14.77
2019-02-27T07:38:42.228Z,13.11
2019-02-27T07:44:37.264Z,13.02
2019-02-27T07:50:32.638Z,11.98
2019-02-27T07:56:27.239Z,11.92
2019-02-27T08:02:22.247Z,10.68
2019-02-27T08:08:17.265Z,10.88
2019-02-27T08:14:12.954Z,12.19
2019-02-27T08:20:07.293Z,11.77
2019-02-27T08:26:04.464Z,13.43
2019-02-27T08:32:00.660Z,13.06
2019-02-27T08:38:01.863Z,14.73
2019-02-27T08:43:47.325Z,15.99
2019-02-27T08:49:42.305Z,18.48
2019-02-27T08:55:39.192Z,18.37
2019-02-27T09:01:32.305Z,19.27
2019-02-27T09:07:27.374Z,20.16
2019-02-27T09:13:22.276Z,18.86
2019-02-27T09:19:17.264Z,18.5
2019-02-27T09:25:12.283Z,17.09
2019-02-27T09:31:07.300Z,18.07
2019-02-27T09:37:02.297Z,18.13
2019-02-27T09:42:57.281Z,17.8
2019-02-27T09:48:52.321Z,17.73
2019-02-27T09:54:47.568Z,18.37
2019-02-27T10:00:42.296Z,18.06
2019-02-27T10:06:37.333Z,16.76
2019-02-27T10:12:32.400Z,16.64
2019-02-27T10:18:27.338Z,16.4
2019-02-27T10:24:22.325Z,15.29
2019-02-27T10:30:17.340Z,17.89
2019-02-27T10:36:12.327Z,17.46
2019-02-27T10:42:07.318Z,19.06
2019-02-27T10:48:02.336Z,18.82
2019-02-27T10:54:01.857Z,18.04
2019-02-27T10:59:52.345Z,17.71
2019-02-27T11:05:52.029Z,17.93
2019-02-27T11:11:42.355Z,16.47
2019-02-27T11:17:37.379Z,15.59
2019-02-27T11:23:32.380Z,16.82
2019-02-27T11:29:27.387Z,14.91
2019-02-27T11:35:24.968Z,14.2
2019-02-27T11:41:17.383Z,16.17
2019-02-27T11:47:12.374Z,15.35
2019-02-27T11:53:07.395Z,15.44
2019-02-27T11:59:02.384Z,13.46
2019-02-27T12:04:57.424Z,12.94
2019-02-27T12:10:52.453Z,14.15
2019-02-27T12:16:48.550Z,12.89
2019-02-27T12:22:42.396Z,13.39
2019-02-27T12:28:37.392Z,12.13
2019-02-27T12:34:33.981Z,12.34
2019-02-27T12:40:27.417Z,11.77
2019-02-27T12:46:22.461Z,11.89
2019-02-27T12:52:17.449Z,11.64
2019-02-27T12:58:13.447Z,13.14
2019-02-27T13:04:07.459Z,14.52
2019-02-27T13:10:02.419Z,14.42
2019-02-27T13:15:57.451Z,13.71
2019-02-27T13:21:54.997Z,14.03
2019-02-27T13:27:47.456Z,13.07
2019-02-27T13:33:42.447Z,12.64
2019-02-27T13:39:37.441Z,11.65
2019-02-27T13:45:32.480Z,11.32
2019-02-27T13:51:27.483Z,11.87
2019-02-27T13:57:24.821Z,10.34
2019-02-27T14:03:17.480Z,9.61
2019-02-27T14:09:12.466Z,8.35
2019-02-27T14:15:07.510Z,7.56
2019-02-27T14:21:02.493Z,7.5
2019-02-27T14:26:57.518Z,8.16
2019-02-27T14:32:52.519Z,7.1
2019-02-27T14:38:47.553Z,7.25
2019-02-27T14:44:42.573Z,6.91
2019-02-27T14:50:37.521Z,6.17
2019-02-27T14:56:32.501Z,6.5
2019-02-27T15:02:27.510Z,6.3
2019-02-27T15:08:25.125Z,6.02
2019-02-27T15:14:17.549Z,7.03
2019-02-27T15:20:12.528Z,6.69
2019-02-27T15:26:07.524Z,7.27
2019-02-27T15:32:02.547Z,7.6
2019-02-27T15:37:57.529Z,7.49
2019-02-27T15:43:57.564Z,6.57
2019-02-27T15:49:48.677Z,6.92
2019-02-27T15:55:42.552Z,7.09
2019-02-27T16:01:37.582Z,8.22
2019-02-27T16:07:32.558Z,7.17
2019-02-27T16:13:27.589Z,6.42
2019-02-27T16:19:22.646Z,6.77
2019-02-27T16:25:19.860Z,6.34
2019-02-27T16:31:12.578Z,7.16
2019-02-27T16:37:07.583Z,6.27
2019-02-27T16:43:02.580Z,6.74
2019-02-27T16:48:57.578Z,5.82
2019-02-27T16:54:52.605Z,5.67
2019-02-27T17:00:47.617Z,6
2019-02-27T17:06:42.582Z,7.61
2019-02-27T17:12:38.166Z,6
2019-02-27T17:18:32.632Z,5.62
2019-02-27T17:24:27.609Z,5.95
2019-02-27T17:30:24.300Z,5.97
2019-02-27T17:36:17.614Z,5.5
2019-02-27T17:42:12.608Z,5.13
2019-02-27T17:48:09.239Z,4.66
2019-02-27T17:54:02.655Z,5.24
2019-02-27T17:59:57.627Z,5.73
2019-02-27T18:05:52.687Z,4.28
2019-02-27T18:11:49.391Z,5.5
2019-02-27T18:17:42.631Z,3.83
2019-02-27T18:23:37.649Z,3.64
2019-02-27T18:29:32.644Z,4.28
2019-02-27T18:35:29.497Z,4.67
2019-02-27T18:41:22.663Z,5.79
2019-02-27T18:47:17.645Z,6.72
2019-02-27T18:53:13.308Z,6.24
2019-02-27T18:59:07.681Z,7.32
2019-02-27T19:05:02.682Z,7.99
2019-02-27T19:10:57.702Z,8.02
2019-02-27T19:16:54.836Z,8.68
2019-02-27T19:22:47.679Z,8.41
2019-02-27T19:28:42.688Z,8.78
2019-02-27T19:34:37.761Z,8.23
2019-02-27T19:40:32.698Z,8.4
2019-02-27T19:46:27.755Z,8.54
2019-02-27T19:52:22.679Z,8.67
2019-02-27T19:58:18.334Z,8.75
2019-02-27T20:04:12.808Z,8.79
2019-02-27T20:10:07.704Z,8.3
2019-02-27T20:16:02.713Z,8.93
2019-02-27T20:21:58.597Z,8.93
2019-02-27T20:27:52.704Z,9.29
2019-02-27T20:33:47.784Z,8.66
2019-02-27T20:39:42.730Z,8.69
2019-02-27T20:45:40.005Z,8.71
2019-02-27T20:51:32.740Z,8.64
2019-02-27T20:57:27.728Z,8.71
2019-02-27T21:03:26.648Z,9.06
2019-02-27T21:09:17.733Z,7.84
2019-02-27T21:15:12.742Z,8.35
2019-02-27T21:21:07.757Z,7.32
2019-02-27T21:27:02.737Z,7.17
2019-02-27T21:32:57.776Z,6.93
2019-02-27T21:38:52.793Z,6.99
2019-02-27T21:44:47.809Z,6.87
2019-02-27T21:50:42.764Z,7.46
2019-02-27T21:56:37.765Z,7.48
2019-02-27T22:02:32.780Z,7.44
2019-02-27T22:08:27.758Z,6.93
2019-02-27T22:14:22.790Z,6.86
2019-02-27T22:20:17.798Z,7.79
2019-02-27T22:26:12.789Z,9.02
2019-02-27T22:32:07.828Z,8.14
2019-02-27T22:38:02.810Z,8.02
2019-02-27T22:43:57.800Z,7.56
2019-02-27T22:49:52.797Z,7.31
2019-02-27T22:55:47.821Z,7.56
2019-02-27T23:01:42.799Z,7.48
2019-02-27T23:07:37.800Z,7.93
2019-02-27T23:13:32.806Z,7.87
2019-02-27T23:19:27.831Z,8.68
2019-02-27T23:25:22.841Z,9.2
2019-02-27T23:31:22.151Z,9.27
2019-02-27T23:37:12.811Z,9.62
2019-02-27T23:43:07.811Z,11.09
2019-02-27T23:49:02.890Z,10.57
2019-02-27T23:54:57.867Z,10.16
